Hickory Ridge, Arkansas
Current Conditions -  °F | °C
As of 3:56 PM on Monday 24 Nov 2014 (Local Time) from KM19 Reporting Station
Clear Clear  
Wind Chill: 13°   Ceiling: Unl
Heat Index: 13°   Visibility: 10mi
Dew Point:   Wind: 15mph
Humidity: 40%   Direction: 230°SW
Pressure: 29.9"   Gusts: NA
Location:  35.4°N, 91°W
Report Text: KM19 242156Z AUTO 23013KT 10SM CLR 13/00 A2990 RMK AO2 T01330000 SLP125
Loading
Personal Weather Stations






























Interactive Weather Map New forecast layout! Learn more

10-Day Weather Forecast

Advertisements
Track Severe Weather on mobile